Aeroporto :
LOGIN :

Iscrizione | Disclaimer

   EN    FR    IT 

 










Sommario :    VFR   VFR Marginale   IFR   IFR Intensivo   IFR Molto Intensivo
Visibilità : 
Base nubi : 
>= 8 km
>= 3000ft
5 / 8 km
1000 / 3000 ft
1500m / 5 km
500 / 1000 ft
800 / 1500m
200 / 500 ft
< 800m
< 200 ft
Simboli :   Temporali  Nebbia  Neve Forte  Precipitazioni Forti  Vento > 20 kt
SIGMETs :   Varie  Temporali  Ghiacco  Turbolenza  Onda orograficha  Ceneri Vulcaniche






- Altitudine del aeroporto : 288 ft
- Codice IATA : BZZ


EGVN - RAF Brize Norton

ULTIMO METAR :
  • 142350Z 03007KT 9999 SCT010 BKN030 05/04 Q1004 TEMPO FEW010 RMK GRN TEMPO WHT

METARs OBSOLETI :
  • 142320Z 02008KT 9999 SCT010 BKN018 04/03 Q1004 TEMPO FEW010 BKN018 RMK GRN TEMPO WHT
  • 142250Z 02008KT 9999 FEW007 SCT018 04/03 Q1004 TEMPO 7000 BR
  • 142220Z 03008KT 9999 FEW007 BKN012 05/04 Q1004 TEMPO BKN006 RMK GRN TEMPO YLO1
  • 142150Z 04010KT 9999 BKN008 BKN010 05/04 Q1003 TEMPO 7000 -DZ BKN006 RMK GRN TEMPO YLO1
  • 142120Z 04009KT 9999 BKN008 05/04 Q1003 TEMPO 7000 -DZ BKN006 RMK GRN TEMPO YLO1
  • 142050Z 04011KT 9999 SCT007 BKN010 05/04 Q1003 TEMPO 7000 -DZ BKN006 RMK GRN TEMPO YLO1

TAF TAF EGVN
Valido dal 15 a 00 ore il 16 a 00 ore UTC


142250Z 1500/1524 02012KT 9999 BKN010
PROB40 1500/1512 4000 BR
PROB30
TEMPO 1500/1510 2000 -DZ BKN004
BECMG 1510/1513 BKN015
BECMG 1513/1515 BKN030
TEMPO 1518/1524 7000 -RA SCT010
PROB30
TEMPO 1518/1524 03015G25KT
BECMG 1522/1524 BKN015



MetMap, La meteo Aeronautica in un colpo d'occhio ! - Copyright ORBIFLY Dicembre 2007 - Disclaimer

ORBIFLY MET'MAP TEAM :

Programmazione e sviluppo : Alexandra Zaïnal
Concezione e sviluppo : Baudouin d'Aumeries
Co-Programmazione e sviluppo : Marc-Olivier Méhu
Supporto tecnico e logistico : Manuel Goepfert
Aiuto per la traduzione : Arnaldo La Scala

Contatto : metmap@orbifly.com




FONTI E CREDITI :

   NOAA